sensor_id;sensor_type;location;lat;lon;timestamp;pressure;altitude;pressure_sealevel;temperature;humidity
52735;BME280;38631;47.572;10.704;2023-03-14T00:01:45;91181.41;;;9.01;83.39
52735;BME280;38631;47.572;10.704;2023-03-14T00:04:10;91178.00;;;9.01;84.08
52735;BME280;38631;47.572;10.704;2023-03-14T00:06:36;91184.97;;;9.05;84.99
52735;BME280;38631;47.572;10.704;2023-03-14T00:09:01;91190.47;;;9.00;86.03
52735;BME280;38631;47.572;10.704;2023-03-14T00:11:27;91192.06;;;8.93;86.77
52735;BME280;38631;47.572;10.704;2023-03-14T00:13:52;91185.81;;;8.97;86.13
52735;BME280;38631;47.572;10.704;2023-03-14T00:16:18;91185.84;;;9.09;85.96
52735;BME280;38631;47.572;10.704;2023-03-14T00:18:44;91199.84;;;9.10;86.25
52735;BME280;38631;47.572;10.704;2023-03-14T00:21:11;91203.88;;;8.95;87.43
52735;BME280;38631;47.572;10.704;2023-03-14T00:23:38;91207.75;;;8.85;89.26
52735;BME280;38631;47.572;10.704;2023-03-14T00:26:06;91203.69;;;8.67;91.38
52735;BME280;38631;47.572;10.704;2023-03-14T00:28:32;91215.28;;;8.96;89.10
52735;BME280;38631;47.572;10.704;2023-03-14T00:30:58;91222.06;;;8.84;94.17
52735;BME280;38631;47.572;10.704;2023-03-14T00:33:23;91243.28;;;8.97;92.08
52735;BME280;38631;47.572;10.704;2023-03-14T00:35:56;91243.97;;;9.06;92.82
52735;BME280;38631;47.572;10.704;2023-03-14T00:38:23;91248.16;;;9.07;93.62
52735;BME280;38631;47.572;10.704;2023-03-14T00:40:50;91243.22;;;9.05;95.25
52735;BME280;38631;47.572;10.704;2023-03-14T00:43:15;91245.66;;;9.11;94.41
52735;BME280;38631;47.572;10.704;2023-03-14T00:45:40;91237.91;;;9.05;95.17
52735;BME280;38631;47.572;10.704;2023-03-14T00:48:06;91253.81;;;9.05;96.95
52735;BME280;38631;47.572;10.704;2023-03-14T00:50:31;91257.19;;;8.94;98.62
52735;BME280;38631;47.572;10.704;2023-03-14T00:52:56;91261.97;;;8.79;100.00
52735;BME280;38631;47.572;10.704;2023-03-14T00:55:22;91261.28;;;8.49;100.00
52735;BME280;38631;47.572;10.704;2023-03-14T00:57:47;91264.59;;;8.37;100.00
52735;BME280;38631;47.572;10.704;2023-03-14T01:00:13;91252.28;;;8.20;100.00
52735;BME280;38631;47.572;10.704;2023-03-14T01:02:39;91253.56;;;8.14;100.00
52735;BME280;38631;47.572;10.704;2023-03-14T01:05:04;91262.19;;;8.03;100.00
52735;BME280;38631;47.572;10.704;2023-03-14T01:07:30;91262.81;;;7.99;100.00
52735;BME280;38631;47.572;10.704;2023-03-14T01:09:55;91283.25;;;7.90;100.00
52735;BME280;38631;47.572;10.704;2023-03-14T01:12:20;91281.69;;;7.89;100.00
52735;BME280;38631;47.572;10.704;2023-03-14T01:14:46;91278.13;;;7.55;100.00
52735;BME280;38631;47.572;10.704;2023-03-14T01:17:11;91277.00;;;7.65;100.00
52735;BME280;38631;47.572;10.704;2023-03-14T01:19:36;91270.72;;;7.40;100.00
52735;BME280;38631;47.572;10.704;2023-03-14T01:22:02;91268.25;;;7.35;100.00
52735;BME280;38631;47.572;10.704;2023-03-14T01:24:27;91268.19;;;7.05;100.00
52735;BME280;38631;47.572;10.704;2023-03-14T01:26:53;91271.41;;;7.11;100.00
52735;BME280;38631;47.572;10.704;2023-03-14T01:29:18;91275.16;;;7.01;100.00
52735;BME280;38631;47.572;10.704;2023-03-14T01:31:43;91276.13;;;6.79;100.00
52735;BME280;38631;47.572;10.704;2023-03-14T01:34:09;91279.84;;;6.78;100.00
52735;BME280;38631;47.572;10.704;2023-03-14T01:36:34;91266.47;;;6.92;100.00
52735;BME280;38631;47.572;10.704;2023-03-14T01:39:00;91275.50;;;6.74;100.00
52735;BME280;38631;47.572;10.704;2023-03-14T01:41:26;91292.59;;;6.67;100.00
52735;BME280;38631;47.572;10.704;2023-03-14T01:43:52;91296.63;;;6.65;100.00
52735;BME280;38631;47.572;10.704;2023-03-14T01:46:29;91307.63;;;6.58;100.00
52735;BME280;38631;47.572;10.704;2023-03-14T01:54:08;91317.88;;;6.60;100.00
52735;BME280;38631;47.572;10.704;2023-03-14T01:56:35;91316.63;;;6.48;100.00
52735;BME280;38631;47.572;10.704;2023-03-14T01:59:04;91315.69;;;6.36;100.00
52735;BME280;38631;47.572;10.704;2023-03-14T02:01:31;91313.66;;;6.41;100.00
52735;BME280;38631;47.572;10.704;2023-03-14T02:04:02;91324.22;;;6.41;100.00
52735;BME280;38631;47.572;10.704;2023-03-14T02:06:49;91319.25;;;6.48;100.00
52735;BME280;38631;47.572;10.704;2023-03-14T02:09:16;91300.50;;;6.50;100.00
52735;BME280;38631;47.572;10.704;2023-03-14T02:11:43;91300.31;;;6.20;100.00
52735;BME280;38631;47.572;10.704;2023-03-14T02:14:16;91276.59;;;6.20;100.00
52735;BME280;38631;47.572;10.704;2023-03-14T02:16:44;91273.66;;;6.48;100.00
52735;BME280;38631;47.572;10.704;2023-03-14T02:19:10;91272.09;;;6.21;100.00
52735;BME280;38631;47.572;10.704;2023-03-14T02:21:54;91242.47;;;6.15;100.00
52735;BME280;38631;47.572;10.704;2023-03-14T02:24:35;91241.84;;;6.18;100.00
52735;BME280;38631;47.572;10.704;2023-03-14T02:27:13;91204.19;;;6.00;100.00
52735;BME280;38631;47.572;10.704;2023-03-14T02:29:54;91211.53;;;5.63;100.00
52735;BME280;38631;47.572;10.704;2023-03-14T02:32:22;91218.06;;;5.75;100.00
52735;BME280;38631;47.572;10.704;2023-03-14T02:34:55;91217.00;;;5.84;100.00
52735;BME280;38631;47.572;10.704;2023-03-14T02:37:24;91211.78;;;6.02;100.00
52735;BME280;38631;47.572;10.704;2023-03-14T02:39:52;91201.09;;;5.98;100.00
52735;BME280;38631;47.572;10.704;2023-03-14T02:42:17;91185.31;;;5.32;100.00
52735;BME280;38631;47.572;10.704;2023-03-14T02:47:31;91163.22;;;5.02;100.00
52735;BME280;38631;47.572;10.704;2023-03-14T02:50:06;91152.94;;;5.40;100.00
52735;BME280;38631;47.572;10.704;2023-03-14T02:52:33;91148.28;;;5.29;100.00
52735;BME280;38631;47.572;10.704;2023-03-14T02:54:58;91147.69;;;5.40;100.00
52735;BME280;38631;47.572;10.704;2023-03-14T02:57:24;91139.06;;;5.92;100.00
52735;BME280;38631;47.572;10.704;2023-03-14T02:59:49;91130.41;;;6.18;100.00
52735;BME280;38631;47.572;10.704;2023-03-14T03:02:15;91150.09;;;6.03;100.00
52735;BME280;38631;47.572;10.704;2023-03-14T03:04:40;91164.16;;;5.81;100.00
52735;BME280;38631;47.572;10.704;2023-03-14T03:07:05;91139.97;;;5.53;100.00
52735;BME280;38631;47.572;10.704;2023-03-14T03:09:31;91168.00;;;5.66;100.00
52735;BME280;38631;47.572;10.704;2023-03-14T03:11:56;91170.97;;;5.65;100.00
52735;BME280;38631;47.572;10.704;2023-03-14T03:14:21;91151.72;;;5.29;100.00
52735;BME280;38631;47.572;10.704;2023-03-14T03:16:47;91142.47;;;5.75;100.00
52735;BME280;38631;47.572;10.704;2023-03-14T03:19:12;91131.59;;;5.51;100.00
52735;BME280;38631;47.572;10.704;2023-03-14T03:21:39;91136.25;;;5.71;100.00
52735;BME280;38631;47.572;10.704;2023-03-14T03:24:04;91146.81;;;5.89;100.00
52735;BME280;38631;47.572;10.704;2023-03-14T03:26:30;91131.19;;;6.01;100.00
52735;BME280;38631;47.572;10.704;2023-03-14T03:28:55;91135.63;;;5.39;100.00
52735;BME280;38631;47.572;10.704;2023-03-14T03:31:20;91143.53;;;5.39;100.00
52735;BME280;38631;47.572;10.704;2023-03-14T03:33:46;91147.88;;;5.61;100.00
52735;BME280;38631;47.572;10.704;2023-03-14T03:36:11;91131.84;;;5.14;100.00
52735;BME280;38631;47.572;10.704;2023-03-14T03:38:36;91137.19;;;5.49;100.00
52735;BME280;38631;47.572;10.704;2023-03-14T03:41:06;91135.19;;;5.72;100.00
52735;BME280;38631;47.572;10.704;2023-03-14T03:43:31;91121.41;;;5.49;100.00
52735;BME280;38631;47.572;10.704;2023-03-14T03:45:57;91127.69;;;5.31;100.00
52735;BME280;38631;47.572;10.704;2023-03-14T03:48:22;91120.44;;;5.54;100.00
52735;BME280;38631;47.572;10.704;2023-03-14T03:50:48;91118.59;;;5.80;100.00
52735;BME280;38631;47.572;10.704;2023-03-14T03:53:13;91118.75;;;5.84;100.00
52735;BME280;38631;47.572;10.704;2023-03-14T03:55:42;91113.78;;;5.74;100.00
52735;BME280;38631;47.572;10.704;2023-03-14T03:58:07;91104.63;;;5.36;100.00
52735;BME280;38631;47.572;10.704;2023-03-14T04:00:33;91083.59;;;5.45;100.00
52735;BME280;38631;47.572;10.704;2023-03-14T04:02:58;91076.66;;;5.49;100.00
52735;BME280;38631;47.572;10.704;2023-03-14T04:05:24;91067.03;;;5.62;100.00
52735;BME280;38631;47.572;10.704;2023-03-14T04:07:50;91078.81;;;5.65;100.00
52735;BME280;38631;47.572;10.704;2023-03-14T04:10:15;91077.88;;;5.52;100.00
52735;BME280;38631;47.572;10.704;2023-03-14T04:12:40;91087.47;;;5.56;100.00
52735;BME280;38631;47.572;10.704;2023-03-14T04:15:06;91082.34;;;5.43;100.00
52735;BME280;38631;47.572;10.704;2023-03-14T04:17:32;91071.50;;;5.44;100.00
52735;BME280;38631;47.572;10.704;2023-03-14T04:19:57;91038.84;;;5.36;100.00
52735;BME280;38631;47.572;10.704;2023-03-14T04:22:23;91029.09;;;5.37;100.00
52735;BME280;38631;47.572;10.704;2023-03-14T04:24:48;91029.09;;;5.46;100.00
52735;BME280;38631;47.572;10.704;2023-03-14T04:27:14;91027.53;;;5.36;100.00
52735;BME280;38631;47.572;10.704;2023-03-14T04:29:40;91022.13;;;5.41;100.00
52735;BME280;38631;47.572;10.704;2023-03-14T04:32:05;91038.41;;;5.52;100.00
52735;BME280;38631;47.572;10.704;2023-03-14T04:34:30;91034.03;;;5.56;100.00
52735;BME280;38631;47.572;10.704;2023-03-14T04:36:56;91031.09;;;5.49;100.00
52735;BME280;38631;47.572;10.704;2023-03-14T04:39:21;91039.91;;;5.61;100.00
52735;BME280;38631;47.572;10.704;2023-03-14T04:41:47;91020.88;;;5.56;100.00
52735;BME280;38631;47.572;10.704;2023-03-14T04:44:12;91004.31;;;5.47;100.00
52735;BME280;38631;47.572;10.704;2023-03-14T04:46:37;90993.78;;;5.55;100.00
52735;BME280;38631;47.572;10.704;2023-03-14T04:49:03;91011.44;;;5.46;100.00
52735;BME280;38631;47.572;10.704;2023-03-14T04:51:28;91003.06;;;5.53;100.00
52735;BME280;38631;47.572;10.704;2023-03-14T04:53:54;90999.94;;;5.68;100.00
52735;BME280;38631;47.572;10.704;2023-03-14T04:56:20;90996.38;;;5.73;100.00
52735;BME280;38631;47.572;10.704;2023-03-14T04:58:45;90986.19;;;5.62;100.00
52735;BME280;38631;47.572;10.704;2023-03-14T05:01:10;90993.16;;;5.50;100.00
52735;BME280;38631;47.572;10.704;2023-03-14T05:03:36;90997.81;;;5.53;100.00
52735;BME280;38631;47.572;10.704;2023-03-14T05:06:03;90990.22;;;5.60;100.00
52735;BME280;38631;47.572;10.704;2023-03-14T05:08:29;90986.47;;;5.61;100.00
52735;BME280;38631;47.572;10.704;2023-03-14T05:10:55;90971.78;;;5.60;100.00
52735;BME280;38631;47.572;10.704;2023-03-14T05:13:21;90984.16;;;5.68;100.00
52735;BME280;38631;47.572;10.704;2023-03-14T05:15:46;90985.22;;;5.84;100.00
52735;BME280;38631;47.572;10.704;2023-03-14T05:18:12;90977.47;;;5.79;100.00
52735;BME280;38631;47.572;10.704;2023-03-14T05:20:37;90964.31;;;5.79;100.00
52735;BME280;38631;47.572;10.704;2023-03-14T05:23:03;90967.41;;;5.64;100.00
52735;BME280;38631;47.572;10.704;2023-03-14T05:25:28;90970.38;;;5.54;100.00
52735;BME280;38631;47.572;10.704;2023-03-14T05:27:54;90942.84;;;5.43;100.00
52735;BME280;38631;47.572;10.704;2023-03-14T05:30:20;90933.56;;;5.45;100.00
52735;BME280;38631;47.572;10.704;2023-03-14T05:32:47;90937.56;;;5.60;100.00
52735;BME280;38631;47.572;10.704;2023-03-14T05:35:13;90929.91;;;5.76;100.00
52735;BME280;38631;47.572;10.704;2023-03-14T05:37:38;90944.66;;;5.77;100.00
52735;BME280;38631;47.572;10.704;2023-03-14T05:40:05;90943.84;;;5.76;100.00
52735;BME280;38631;47.572;10.704;2023-03-14T05:42:31;90938.88;;;5.83;100.00
52735;BME280;38631;47.572;10.704;2023-03-14T05:44:57;90943.72;;;5.64;100.00
52735;BME280;38631;47.572;10.704;2023-03-14T05:47:22;90941.41;;;5.62;100.00
52735;BME280;38631;47.572;10.704;2023-03-14T05:49:47;90945.09;;;5.79;100.00
52735;BME280;38631;47.572;10.704;2023-03-14T05:52:14;90925.00;;;5.66;100.00
52735;BME280;38631;47.572;10.704;2023-03-14T05:54:39;90918.19;;;5.56;100.00
52735;BME280;38631;47.572;10.704;2023-03-14T05:57:04;90915.09;;;5.62;100.00
52735;BME280;38631;47.572;10.704;2023-03-14T05:59:30;90904.84;;;5.70;100.00
52735;BME280;38631;47.572;10.704;2023-03-14T06:01:55;90893.22;;;5.71;100.00
52735;BME280;38631;47.572;10.704;2023-03-14T06:04:21;90886.56;;;5.73;100.00
52735;BME280;38631;47.572;10.704;2023-03-14T06:06:46;90888.41;;;5.73;100.00
52735;BME280;38631;47.572;10.704;2023-03-14T06:09:11;90886.84;;;5.72;100.00
52735;BME280;38631;47.572;10.704;2023-03-14T06:11:37;90889.66;;;5.75;100.00
52735;BME280;38631;47.572;10.704;2023-03-14T06:14:02;90875.31;;;5.55;100.00
52735;BME280;38631;47.572;10.704;2023-03-14T06:16:28;90877.75;;;5.60;100.00
52735;BME280;38631;47.572;10.704;2023-03-14T06:18:53;90877.00;;;5.60;100.00
52735;BME280;38631;47.572;10.704;2023-03-14T06:21:19;90881.59;;;5.72;100.00
52735;BME280;38631;47.572;10.704;2023-03-14T06:23:45;90890.47;;;5.67;100.00
52735;BME280;38631;47.572;10.704;2023-03-14T06:26:10;90886.84;;;5.72;100.00
52735;BME280;38631;47.572;10.704;2023-03-14T06:28:37;90901.69;;;5.85;100.00
52735;BME280;38631;47.572;10.704;2023-03-14T06:31:02;90903.38;;;5.90;100.00
52735;BME280;38631;47.572;10.704;2023-03-14T06:33:28;90906.63;;;5.87;100.00
52735;BME280;38631;47.572;10.704;2023-03-14T06:35:54;90911.00;;;5.82;100.00
52735;BME280;38631;47.572;10.704;2023-03-14T06:38:19;90904.34;;;5.76;100.00
52735;BME280;38631;47.572;10.704;2023-03-14T06:40:45;90900.47;;;5.82;100.00
52735;BME280;38631;47.572;10.704;2023-03-14T06:43:10;90891.75;;;5.91;100.00
52735;BME280;38631;47.572;10.704;2023-03-14T06:45:36;90901.59;;;6.11;98.55
52735;BME280;38631;47.572;10.704;2023-03-14T06:48:01;90894.34;;;6.08;97.45
52735;BME280;38631;47.572;10.704;2023-03-14T06:50:27;90889.66;;;6.14;96.61
52735;BME280;38631;47.572;10.704;2023-03-14T06:52:52;90894.81;;;6.10;99.71
52735;BME280;38631;47.572;10.704;2023-03-14T06:55:17;90892.47;;;6.09;100.00
52735;BME280;38631;47.572;10.704;2023-03-14T06:57:43;90913.72;;;6.12;100.00
52735;BME280;38631;47.572;10.704;2023-03-14T07:00:10;90902.72;;;6.01;100.00
52735;BME280;38631;47.572;10.704;2023-03-14T07:02:36;90906.69;;;6.16;100.00
52735;BME280;38631;47.572;10.704;2023-03-14T07:05:01;90891.75;;;5.99;100.00
52735;BME280;38631;47.572;10.704;2023-03-14T07:07:27;90878.66;;;6.12;100.00
52735;BME280;38631;47.572;10.704;2023-03-14T07:09:52;90878.22;;;6.10;100.00
52735;BME280;38631;47.572;10.704;2023-03-14T07:12:18;90873.06;;;6.13;100.00
52735;BME280;38631;47.572;10.704;2023-03-14T07:14:44;90870.06;;;6.23;96.39
52735;BME280;38631;47.572;10.704;2023-03-14T07:17:09;90877.78;;;6.28;94.66
52735;BME280;38631;47.572;10.704;2023-03-14T07:19:34;90855.63;;;6.30;94.88
52735;BME280;38631;47.572;10.704;2023-03-14T07:22:00;90864.31;;;6.30;94.82
52735;BME280;38631;47.572;10.704;2023-03-14T07:24:25;90861.41;;;6.44;90.54
52735;BME280;38631;47.572;10.704;2023-03-14T07:26:50;90867.03;;;6.42;94.96
52735;BME280;38631;47.572;10.704;2023-03-14T07:29:16;90866.41;;;6.37;98.60
52735;BME280;38631;47.572;10.704;2023-03-14T07:31:41;90877.75;;;6.37;100.00
52735;BME280;38631;47.572;10.704;2023-03-14T07:34:06;90881.00;;;6.34;97.02
52735;BME280;38631;47.572;10.704;2023-03-14T07:36:32;90879.59;;;6.37;98.71
52735;BME280;38631;47.572;10.704;2023-03-14T07:38:57;90885.97;;;6.36;95.81
52735;BME280;38631;47.572;10.704;2023-03-14T07:41:23;90897.25;;;6.45;96.94
52735;BME280;38631;47.572;10.704;2023-03-14T07:43:49;90883.44;;;6.18;99.95
52735;BME280;38631;47.572;10.704;2023-03-14T07:46:14;90889.00;;;5.87;100.00
52735;BME280;38631;47.572;10.704;2023-03-14T07:48:40;90895.97;;;5.83;100.00
52735;BME280;38631;47.572;10.704;2023-03-14T07:51:05;90899.31;;;6.10;100.00
52735;BME280;38631;47.572;10.704;2023-03-14T07:53:31;90900.94;;;5.84;100.00
52735;BME280;38631;47.572;10.704;2023-03-14T07:55:56;90912.88;;;5.82;100.00
52735;BME280;38631;47.572;10.704;2023-03-14T07:58:22;90910.66;;;5.93;100.00
52735;BME280;38631;47.572;10.704;2023-03-14T08:00:48;90926.78;;;6.00;100.00
52735;BME280;38631;47.572;10.704;2023-03-14T08:03:13;90933.81;;;6.17;100.00
52735;BME280;38631;47.572;10.704;2023-03-14T08:05:39;90947.91;;;6.21;100.00
52735;BME280;38631;47.572;10.704;2023-03-14T08:08:05;90950.03;;;5.98;100.00
52735;BME280;38631;47.572;10.704;2023-03-14T08:10:31;90948.09;;;6.16;100.00
52735;BME280;38631;47.572;10.704;2023-03-14T08:12:58;90968.88;;;6.17;99.15
52735;BME280;38631;47.572;10.704;2023-03-14T08:15:24;90947.78;;;6.17;95.61
52735;BME280;38631;47.572;10.704;2023-03-14T08:17:50;90933.69;;;6.13;95.94
52735;BME280;38631;47.572;10.704;2023-03-14T08:20:17;90930.88;;;6.18;95.04
52735;BME280;38631;47.572;10.704;2023-03-14T08:22:42;90931.28;;;6.29;94.07
52735;BME280;38631;47.572;10.704;2023-03-14T08:25:08;90913.16;;;6.27;91.88
52735;BME280;38631;47.572;10.704;2023-03-14T08:27:33;90910.72;;;6.22;91.56
52735;BME280;38631;47.572;10.704;2023-03-14T08:29:58;90902.19;;;6.46;85.82
52735;BME280;38631;47.572;10.704;2023-03-14T08:32:24;90913.66;;;6.51;86.09
52735;BME280;38631;47.572;10.704;2023-03-14T08:34:49;90906.19;;;6.53;86.37
52735;BME280;38631;47.572;10.704;2023-03-14T08:37:15;90907.72;;;6.54;86.46
52735;BME280;38631;47.572;10.704;2023-03-14T08:39:40;90906.66;;;6.55;85.37
52735;BME280;38631;47.572;10.704;2023-03-14T08:42:06;90900.59;;;6.54;85.61
52735;BME280;38631;47.572;10.704;2023-03-14T08:44:31;90906.31;;;6.56;86.81
52735;BME280;38631;47.572;10.704;2023-03-14T08:46:56;90905.88;;;6.54;85.48
52735;BME280;38631;47.572;10.704;2023-03-14T08:49:22;90898.88;;;6.58;84.66
52735;BME280;38631;47.572;10.704;2023-03-14T08:51:47;90887.09;;;6.56;85.55
52735;BME280;38631;47.572;10.704;2023-03-14T08:54:12;90896.50;;;6.65;84.19
52735;BME280;38631;47.572;10.704;2023-03-14T08:56:38;90887.44;;;6.75;83.12
52735;BME280;38631;47.572;10.704;2023-03-14T08:59:04;90882.34;;;6.70;84.87
52735;BME280;38631;47.572;10.704;2023-03-14T09:01:29;90881.75;;;6.64;86.99
52735;BME280;38631;47.572;10.704;2023-03-14T09:03:55;90877.97;;;6.74;85.32
52735;BME280;38631;47.572;10.704;2023-03-14T09:22:25;90882.31;;;7.12;82.06
52735;BME280;38631;47.572;10.704;2023-03-14T09:24:51;90893.78;;;7.16;81.73
52735;BME280;38631;47.572;10.704;2023-03-14T09:27:16;90894.53;;;7.17;82.13
52735;BME280;38631;47.572;10.704;2023-03-14T09:29:41;90899.41;;;7.27;80.28
52735;BME280;38631;47.572;10.704;2023-03-14T09:32:07;90912.22;;;7.37;80.33
52735;BME280;38631;47.572;10.704;2023-03-14T09:34:32;90903.66;;;7.40;80.21
52735;BME280;38631;47.572;10.704;2023-03-14T09:36:58;90914.53;;;7.39;81.40
52735;BME280;38631;47.572;10.704;2023-03-14T09:39:24;90912.16;;;7.46;81.73
52735;BME280;38631;47.572;10.704;2023-03-14T09:41:51;90912.50;;;7.56;80.97
52735;BME280;38631;47.572;10.704;2023-03-14T09:44:29;90922.47;;;7.84;80.90
52735;BME280;38631;47.572;10.704;2023-03-14T09:46:57;90915.03;;;7.98;81.48
52735;BME280;38631;47.572;10.704;2023-03-14T09:49:31;90919.97;;;8.12;79.95
52735;BME280;38631;47.572;10.704;2023-03-14T09:52:00;90924.50;;;8.12;79.31
52735;BME280;38631;47.572;10.704;2023-03-14T09:54:38;90932.97;;;8.17;79.40
52735;BME280;38631;47.572;10.704;2023-03-14T09:57:06;90937.75;;;8.24;79.07
52735;BME280;38631;47.572;10.704;2023-03-14T09:59:35;90936.66;;;8.50;80.14
52735;BME280;38631;47.572;10.704;2023-03-14T10:02:13;90937.56;;;8.41;79.30
52735;BME280;38631;47.572;10.704;2023-03-14T10:04:40;90930.38;;;8.42;79.23
52735;BME280;38631;47.572;10.704;2023-03-14T10:07:13;90938.44;;;8.46;80.39
52735;BME280;38631;47.572;10.704;2023-03-14T10:09:40;90936.66;;;8.50;79.52
52735;BME280;38631;47.572;10.704;2023-03-14T10:12:08;90946.38;;;8.46;81.94
52735;BME280;38631;47.572;10.704;2023-03-14T10:14:35;90942.09;;;8.41;81.79
52735;BME280;38631;47.572;10.704;2023-03-14T10:17:10;90936.00;;;8.65;80.96
52735;BME280;38631;47.572;10.704;2023-03-14T10:19:37;90923.00;;;8.60;80.86
52735;BME280;38631;47.572;10.704;2023-03-14T10:22:04;90925.00;;;8.75;78.06
52735;BME280;38631;47.572;10.704;2023-03-14T10:24:34;90926.75;;;8.71;79.44
52735;BME280;38631;47.572;10.704;2023-03-14T10:27:05;90921.56;;;8.62;76.30
52735;BME280;38631;47.572;10.704;2023-03-14T10:29:32;90926.41;;;8.73;77.38
52735;BME280;38631;47.572;10.704;2023-03-14T10:32:04;90932.25;;;8.78;77.96
52735;BME280;38631;47.572;10.704;2023-03-14T10:34:32;90926.38;;;8.85;77.83
52735;BME280;38631;47.572;10.704;2023-03-14T10:37:21;90929.38;;;8.71;79.45
52735;BME280;38631;47.572;10.704;2023-03-14T10:39:49;90922.22;;;8.84;78.54
52735;BME280;38631;47.572;10.704;2023-03-14T10:42:25;90928.16;;;8.81;78.80
52735;BME280;38631;47.572;10.704;2023-03-14T10:44:56;90934.56;;;8.80;80.79
52735;BME280;38631;47.572;10.704;2023-03-14T10:47:24;90928.00;;;9.02;78.45
52735;BME280;38631;47.572;10.704;2023-03-14T10:49:50;90926.50;;;8.89;78.09
52735;BME280;38631;47.572;10.704;2023-03-14T10:52:27;90928.72;;;8.86;78.71
52735;BME280;38631;47.572;10.704;2023-03-14T10:55:01;90933.13;;;9.23;79.20
52735;BME280;38631;47.572;10.704;2023-03-14T10:57:27;90927.75;;;9.19;80.01
52735;BME280;38631;47.572;10.704;2023-03-14T10:59:53;90934.50;;;9.17;82.02
52735;BME280;38631;47.572;10.704;2023-03-14T11:07:36;90936.22;;;9.25;77.89
52735;BME280;38631;47.572;10.704;2023-03-14T11:18:44;90923.88;;;9.29;77.20
52735;BME280;38631;47.572;10.704;2023-03-14T11:21:18;90927.03;;;9.35;76.57
52735;BME280;38631;47.572;10.704;2023-03-14T11:26:35;90926.88;;;9.56;75.24
52735;BME280;38631;47.572;10.704;2023-03-14T11:29:54;90939.75;;;9.57;75.32
52735;BME280;38631;47.572;10.704;2023-03-14T11:31:57;90938.19;;;9.68;75.93
52735;BME280;38631;47.572;10.704;2023-03-14T11:34:30;90938.75;;;9.62;74.92
52735;BME280;38631;47.572;10.704;2023-03-14T11:37:04;90934.63;;;9.48;77.08
52735;BME280;38631;47.572;10.704;2023-03-14T11:39:41;90948.97;;;9.47;75.04
52735;BME280;38631;47.572;10.704;2023-03-14T11:42:15;90931.31;;;9.67;74.78
52735;BME280;38631;47.572;10.704;2023-03-14T11:44:43;90941.94;;;9.67;76.21
52735;BME280;38631;47.572;10.704;2023-03-14T11:47:24;90947.53;;;9.78;76.44
52735;BME280;38631;47.572;10.704;2023-03-14T11:53:03;90952.59;;;9.83;76.94
52735;BME280;38631;47.572;10.704;2023-03-14T11:55:35;90956.50;;;9.73;73.53
52735;BME280;38631;47.572;10.704;2023-03-14T11:58:14;90953.50;;;9.75;71.37
52735;BME280;38631;47.572;10.704;2023-03-14T12:00:41;90966.91;;;9.66;71.32
52735;BME280;38631;47.572;10.704;2023-03-14T12:05:50;90982.34;;;9.36;74.67
52735;BME280;38631;47.572;10.704;2023-03-14T12:08:21;90986.47;;;9.21;76.48
52735;BME280;38631;47.572;10.704;2023-03-14T12:11:02;90990.88;;;9.05;79.45
52735;BME280;38631;47.572;10.704;2023-03-14T12:13:32;90985.25;;;9.06;81.92
52735;BME280;38631;47.572;10.704;2023-03-14T12:16:00;90983.16;;;9.00;80.31
52735;BME280;38631;47.572;10.704;2023-03-14T12:21:04;90991.09;;;9.12;81.04
52735;BME280;38631;47.572;10.704;2023-03-14T12:23:52;90987.25;;;9.09;80.78
52735;BME280;38631;47.572;10.704;2023-03-14T12:26:26;90995.31;;;9.13;81.38
52735;BME280;38631;47.572;10.704;2023-03-14T12:34:27;91003.34;;;9.04;78.11
52735;BME280;38631;47.572;10.704;2023-03-14T12:37:04;91015.81;;;9.04;79.41
52735;BME280;38631;47.572;10.704;2023-03-14T12:39:37;91015.38;;;9.02;80.90
52735;BME280;38631;47.572;10.704;2023-03-14T12:42:10;91035.69;;;8.85;79.25
52735;BME280;38631;47.572;10.704;2023-03-14T12:44:44;91045.06;;;8.71;79.27
52735;BME280;38631;47.572;10.704;2023-03-14T12:49:46;91051.16;;;8.38;82.27
52735;BME280;38631;47.572;10.704;2023-03-14T12:52:21;91045.06;;;8.25;83.96
52735;BME280;38631;47.572;10.704;2023-03-14T12:55:09;91046.38;;;8.31;83.28
52735;BME280;38631;47.572;10.704;2023-03-14T13:00:33;91049.63;;;8.04;83.58
52735;BME280;38631;47.572;10.704;2023-03-14T13:03:15;91057.25;;;7.84;87.64
52735;BME280;38631;47.572;10.704;2023-03-14T13:06:00;91069.03;;;7.87;86.76
52735;BME280;38631;47.572;10.704;2023-03-14T13:08:52;91068.59;;;7.85;84.58
52735;BME280;38631;47.572;10.704;2023-03-14T13:11:23;91085.75;;;7.78;86.30
52735;BME280;38631;47.572;10.704;2023-03-14T13:13:52;91087.94;;;7.55;87.42
52735;BME280;38631;47.572;10.704;2023-03-14T13:16:21;91094.22;;;7.42;89.53
52735;BME280;38631;47.572;10.704;2023-03-14T13:18:59;91094.00;;;7.26;90.66
52735;BME280;38631;47.572;10.704;2023-03-14T13:21:27;91104.03;;;7.12;91.10
52735;BME280;38631;47.572;10.704;2023-03-14T13:24:00;91109.72;;;7.23;93.37
52735;BME280;38631;47.572;10.704;2023-03-14T13:26:35;91115.34;;;7.42;94.13
52735;BME280;38631;47.572;10.704;2023-03-14T13:29:23;91125.28;;;7.16;95.54
52735;BME280;38631;47.572;10.704;2023-03-14T13:32:00;91122.94;;;7.23;90.80
52735;BME280;38631;47.572;10.704;2023-03-14T13:34:29;91128.88;;;7.11;90.32
52735;BME280;38631;47.572;10.704;2023-03-14T13:36:55;91133.50;;;7.23;86.89
52735;BME280;38631;47.572;10.704;2023-03-14T13:39:22;91156.47;;;7.22;88.06
52735;BME280;38631;47.572;10.704;2023-03-14T13:41:52;91157.00;;;7.07;89.13
52735;BME280;38631;47.572;10.704;2023-03-14T13:44:27;91188.59;;;7.24;87.28
52735;BME280;38631;47.572;10.704;2023-03-14T13:47:02;91198.16;;;7.08;85.92
52735;BME280;38631;47.572;10.704;2023-03-14T13:49:30;91208.88;;;7.03;86.17
52735;BME280;38631;47.572;10.704;2023-03-14T13:51:59;91218.75;;;6.50;91.11
52735;BME280;38631;47.572;10.704;2023-03-14T13:54:25;91209.44;;;6.61;92.60
52735;BME280;38631;47.572;10.704;2023-03-14T13:57:03;91240.16;;;6.31;92.76
52735;BME280;38631;47.572;10.704;2023-03-14T13:59:30;91247.00;;;6.49;91.72